createdAt,value
2023-03-10T00:01:27.095Z,99785.00
2023-03-10T00:03:58.516Z,99788.00
2023-03-10T00:06:29.998Z,99788.00
2023-03-10T00:09:00.215Z,99788.00
2023-03-10T00:11:30.354Z,99781.00
2023-03-10T00:13:59.041Z,99788.00
2023-03-10T00:16:31.107Z,99788.00
2023-03-10T00:18:59.799Z,99798.00
2023-03-10T00:21:31.716Z,99781.00
2023-03-10T00:24:01.205Z,99784.00
2023-03-10T00:26:31.911Z,99787.00
2023-03-10T00:29:00.686Z,99786.00
2023-03-10T00:31:32.639Z,99786.00
2023-03-10T00:34:02.408Z,99789.00
2023-03-10T00:36:33.228Z,99788.00
2023-03-10T00:39:03.864Z,99787.00
2023-03-10T00:41:39.030Z,99791.00
2023-03-10T00:44:09.657Z,99788.00
2023-03-10T00:46:39.810Z,99801.00
2023-03-10T00:49:10.252Z,99807.00
2023-03-10T00:51:38.904Z,99804.00
2023-03-10T00:54:07.602Z,99807.00
2023-03-10T00:56:37.758Z,99793.00
2023-03-10T00:59:07.793Z,99791.00
2023-03-10T01:01:40.738Z,99794.00
2023-03-10T01:04:14.271Z,99798.00
2023-03-10T01:06:47.537Z,99790.00
2023-03-10T01:09:18.022Z,99787.00
2023-03-10T01:11:49.206Z,99786.00
2023-03-10T01:14:18.826Z,99797.00
2023-03-10T01:16:47.548Z,99804.00
2023-03-10T01:19:16.345Z,99801.00
2023-03-10T01:21:44.995Z,99791.00
2023-03-10T01:24:16.911Z,99797.00
2023-03-10T01:26:47.037Z,99809.00
2023-03-10T01:29:15.901Z,99803.00
2023-03-10T01:31:44.660Z,99801.00
2023-03-10T01:34:13.263Z,99799.00
2023-03-10T01:36:43.520Z,99808.00
2023-03-10T01:39:12.201Z,99804.00
2023-03-10T01:41:43.172Z,99804.00
2023-03-10T01:44:20.039Z,99804.00
2023-03-10T01:46:52.386Z,99798.00
2023-03-10T01:49:41.002Z,99805.00
2023-03-10T01:52:16.275Z,99811.00
2023-03-10T01:54:50.725Z,99798.00
2023-03-10T01:57:25.956Z,99807.00
2023-03-10T01:59:58.130Z,99813.00
2023-03-10T02:02:28.894Z,99819.00
2023-03-10T02:04:59.612Z,99819.00
2023-03-10T02:07:34.150Z,99809.00
2023-03-10T02:10:04.846Z,99824.00
2023-03-10T02:12:33.690Z,99825.00
2023-03-10T02:15:04.909Z,99828.00
2023-03-10T02:17:35.308Z,99826.00
2023-03-10T02:20:26.815Z,99839.00
2023-03-10T02:22:55.750Z,99843.00
2023-03-10T02:25:41.483Z,99826.00
2023-03-10T02:28:12.003Z,99851.00
2023-03-10T02:30:44.623Z,99843.00
2023-03-10T02:33:17.816Z,99840.00
2023-03-10T02:35:47.088Z,99849.00
2023-03-10T02:38:20.980Z,99843.00
2023-03-10T02:40:52.641Z,99857.00
2023-03-10T02:43:30.331Z,99855.00
2023-03-10T02:46:08.915Z,99854.00
2023-03-10T02:48:43.055Z,99862.00
2023-03-10T02:51:24.614Z,99866.00
2023-03-10T02:53:54.710Z,99867.00
2023-03-10T02:56:25.104Z,99875.00
2023-03-10T02:58:55.397Z,99863.00
2023-03-10T03:01:24.044Z,99873.00
2023-03-10T03:03:53.104Z,99873.00
2023-03-10T03:06:22.334Z,99878.00
2023-03-10T03:08:51.555Z,99878.00
2023-03-10T03:11:23.841Z,99884.00
2023-03-10T03:13:54.905Z,99877.00
2023-03-10T03:16:24.859Z,99885.00
2023-03-10T03:18:57.656Z,99888.00
2023-03-10T03:21:27.520Z,99891.00
2023-03-10T03:23:57.213Z,99887.00
2023-03-10T03:26:28.096Z,99901.00
2023-03-10T03:29:03.743Z,99888.00
2023-03-10T03:31:35.704Z,99891.00
2023-03-10T03:34:10.815Z,99890.00
2023-03-10T03:36:39.903Z,99895.00
2023-03-10T03:39:11.063Z,99897.00
2023-03-10T03:41:41.419Z,99896.00
2023-03-10T03:44:13.183Z,99901.00
2023-03-10T03:46:42.458Z,99906.00
2023-03-10T03:49:11.723Z,99891.00
2023-03-10T03:51:41.094Z,99905.00
2023-03-10T03:54:10.643Z,99896.00
2023-03-10T03:56:41.629Z,99903.00
2023-03-10T03:59:14.162Z,99892.00
2023-03-10T04:01:43.150Z,99891.00
2023-03-10T04:04:11.901Z,99898.00
2023-03-10T04:06:41.339Z,99892.00
2023-03-10T04:09:11.838Z,99909.00
2023-03-10T04:11:42.912Z,99891.00
2023-03-10T04:14:14.158Z,99897.00
2023-03-10T04:16:48.629Z,99902.00
2023-03-10T04:19:17.973Z,99896.00
2023-03-10T04:21:50.938Z,99908.00
2023-03-10T04:24:20.164Z,99907.00
2023-03-10T04:26:51.305Z,99896.00
2023-03-10T04:29:24.540Z,99898.00
2023-03-10T04:32:05.363Z,99899.00
2023-03-10T04:34:38.003Z,99898.00
2023-03-10T04:37:07.344Z,99900.00
2023-03-10T04:39:38.265Z,99905.00
2023-03-10T04:42:08.977Z,99899.00
2023-03-10T04:44:40.412Z,99900.00
2023-03-10T04:47:09.439Z,99899.00
2023-03-10T04:49:39.509Z,99894.00
2023-03-10T04:52:12.495Z,99902.00
2023-03-10T04:54:41.265Z,99882.00
2023-03-10T04:57:10.664Z,99897.00
2023-03-10T04:59:41.524Z,99895.00
2023-03-10T05:02:11.910Z,99907.00
2023-03-10T05:04:42.694Z,99902.00
2023-03-10T05:07:14.266Z,99898.00
2023-03-10T05:09:48.557Z,99899.00
2023-03-10T05:12:17.401Z,99906.00
2023-03-10T05:14:47.965Z,99910.00
2023-03-10T05:17:17.960Z,99920.00
2023-03-10T05:19:48.188Z,99921.00
2023-03-10T05:22:17.196Z,99929.00
2023-03-10T05:24:48.626Z,99927.00
2023-03-10T05:27:23.488Z,99927.00
2023-03-10T05:29:57.330Z,99926.00
2023-03-10T05:32:28.269Z,99922.00
2023-03-10T05:35:01.198Z,99926.00
2023-03-10T05:37:32.263Z,99928.00
2023-03-10T05:40:01.461Z,99926.00
2023-03-10T05:42:36.035Z,99928.00
2023-03-10T05:45:08.455Z,99933.00
2023-03-10T05:47:38.355Z,99931.00
2023-03-10T05:50:11.518Z,99935.00
2023-03-10T05:52:43.369Z,99942.00
2023-03-10T05:55:17.296Z,99934.00
2023-03-10T05:57:56.828Z,99936.00
2023-03-10T06:00:28.908Z,99939.00
2023-03-10T06:03:04.605Z,99949.00
2023-03-10T06:05:34.969Z,99950.00
2023-03-10T06:08:07.416Z,99959.00
2023-03-10T06:10:39.660Z,99953.00
2023-03-10T06:13:09.236Z,99952.00
2023-03-10T06:15:42.381Z,99965.00
2023-03-10T06:18:13.574Z,99951.00
2023-03-10T06:20:42.934Z,99967.00
2023-03-10T06:23:18.456Z,99958.00
2023-03-10T06:25:58.614Z,99960.00
2023-03-10T06:28:32.944Z,99967.00
2023-03-10T06:31:07.376Z,99961.00
2023-03-10T06:33:37.001Z,99979.00
2023-03-10T06:36:06.853Z,99977.00
2023-03-10T06:38:35.539Z,99986.00
2023-03-10T06:41:08.813Z,99981.00
2023-03-10T06:43:38.794Z,99978.00
2023-03-10T06:46:12.197Z,99984.00
2023-03-10T06:48:43.123Z,99986.00
2023-03-10T06:51:16.500Z,99977.00
2023-03-10T06:53:45.860Z,99978.00
2023-03-10T06:56:23.080Z,99982.00
2023-03-10T06:58:52.054Z,99981.00
2023-03-10T07:01:28.722Z,99992.00
2023-03-10T07:03:58.732Z,99992.00
2023-03-10T07:06:28.912Z,100001.00
2023-03-10T07:09:02.816Z,100005.00
2023-03-10T07:11:34.147Z,99993.00
2023-03-10T07:14:05.115Z,99999.00
2023-03-10T07:16:39.849Z,100006.00
2023-03-10T07:19:08.952Z,100004.00
2023-03-10T07:21:39.362Z,100017.00
2023-03-10T07:24:08.424Z,100023.00
2023-03-10T07:26:37.400Z,100016.00
2023-03-10T07:29:06.276Z,100022.00
2023-03-10T07:31:37.364Z,100026.00
2023-03-10T07:34:06.093Z,100022.00
2023-03-10T07:36:34.723Z,100026.00
2023-03-10T07:39:03.355Z,100026.00
2023-03-10T07:41:33.157Z,100041.00
2023-03-10T07:44:01.813Z,100030.00
2023-03-10T07:46:30.635Z,100031.00
2023-03-10T07:49:04.303Z,100034.00
2023-03-10T07:51:33.157Z,100028.00
2023-03-10T07:54:01.931Z,100032.00
2023-03-10T07:56:30.654Z,100028.00
2023-03-10T07:59:04.452Z,100031.00
2023-03-10T08:01:35.484Z,100037.00
2023-03-10T08:04:06.553Z,100042.00
2023-03-10T08:06:35.996Z,100041.00
2023-03-10T08:09:05.381Z,100047.00
2023-03-10T08:11:34.293Z,100043.00
2023-03-10T08:14:04.154Z,100041.00
2023-03-10T08:16:33.577Z,100054.00
2023-03-10T08:19:02.507Z,100058.00
2023-03-10T08:21:33.241Z,100056.00
2023-03-10T08:24:01.876Z,100062.00
2023-03-10T08:26:34.394Z,100055.00
2023-03-10T08:29:03.917Z,100065.00
2023-03-10T08:31:36.571Z,100061.00
2023-03-10T08:34:06.849Z,100060.00
2023-03-10T08:36:36.958Z,100065.00
2023-03-10T08:39:07.498Z,100060.00
2023-03-10T08:41:40.093Z,100060.00
2023-03-10T08:44:15.147Z,100074.00
2023-03-10T08:46:46.836Z,100060.00
2023-03-10T08:49:18.068Z,100060.00
2023-03-10T08:51:48.435Z,100062.00
2023-03-10T08:54:23.979Z,100068.00
2023-03-10T08:56:52.801Z,100073.00
2023-03-10T08:59:23.314Z,100074.00
2023-03-10T09:01:52.255Z,100068.00
2023-03-10T09:04:21.968Z,100062.00
2023-03-10T09:06:52.261Z,100059.00
2023-03-10T09:09:20.917Z,100065.00
2023-03-10T09:11:49.675Z,100058.00
2023-03-10T09:14:18.872Z,100074.00
2023-03-10T09:16:47.714Z,100066.00
2023-03-10T09:19:16.457Z,100066.00
2023-03-10T09:21:45.280Z,100076.00
2023-03-10T09:24:15.412Z,100076.00
2023-03-10T09:26:44.820Z,100079.00
2023-03-10T09:29:13.818Z,100080.00
2023-03-10T09:31:43.825Z,100077.00
2023-03-10T09:34:12.899Z,100080.00
2023-03-10T09:36:41.610Z,100091.00
2023-03-10T09:39:10.268Z,100086.00
2023-03-10T09:42:36.472Z,100101.00
2023-03-10T09:45:32.000Z,100090.00
2023-03-10T09:48:26.363Z,100091.00
2023-03-10T09:50:59.938Z,100092.00
2023-03-10T09:54:17.539Z,100097.00
2023-03-10T09:56:55.706Z,100098.00
2023-03-10T09:59:36.948Z,100098.00
2023-03-10T10:02:21.567Z,100099.00
2023-03-10T10:04:56.920Z,100094.00
2023-03-10T10:07:34.056Z,100092.00
2023-03-10T10:10:12.651Z,100099.00
2023-03-10T10:12:43.712Z,100089.00
2023-03-10T10:15:19.100Z,100092.00
2023-03-10T10:18:16.142Z,100093.00
2023-03-10T10:20:59.042Z,100099.00
2023-03-10T10:23:40.224Z,100093.00
2023-03-10T10:26:14.815Z,100097.00
2023-03-10T10:28:50.890Z,100097.00
2023-03-10T10:31:23.208Z,100094.00
2023-03-10T10:34:01.293Z,100092.00
2023-03-10T10:36:33.219Z,100106.00
2023-03-10T10:39:03.552Z,100103.00
2023-03-10T10:41:35.286Z,100101.00
2023-03-10T10:44:15.530Z,100100.00
2023-03-10T10:46:54.077Z,100109.00
2023-03-10T10:49:26.655Z,100098.00
2023-03-10T10:52:01.993Z,100103.00
2023-03-10T10:54:39.468Z,100099.00
2023-03-10T10:57:20.972Z,100099.00
2023-03-10T10:59:51.085Z,100106.00
2023-03-10T11:02:31.772Z,100106.00
2023-03-10T11:05:16.991Z,100111.00
2023-03-10T11:07:46.305Z,100108.00
2023-03-10T11:10:16.787Z,100108.00
2023-03-10T11:13:00.994Z,100105.00
2023-03-10T11:15:36.952Z,100096.00
2023-03-10T11:18:15.728Z,100100.00
2023-03-10T11:20:56.321Z,100097.00
2023-03-10T11:23:32.041Z,100113.00
2023-03-10T11:26:08.203Z,100113.00
2023-03-10T11:28:50.149Z,100119.00
2023-03-10T11:31:35.416Z,100110.00
2023-03-10T11:34:20.687Z,100115.00
2023-03-10T11:37:06.520Z,100117.00
2023-03-10T11:39:49.129Z,100114.00
2023-03-10T11:42:31.365Z,100115.00
2023-03-10T11:45:15.534Z,100111.00
2023-03-10T11:47:59.132Z,100114.00
2023-03-10T11:50:43.500Z,100108.00
2023-03-10T11:53:18.811Z,100109.00
2023-03-10T11:55:50.615Z,100112.00
2023-03-10T11:58:27.434Z,100115.00
2023-03-10T12:00:57.028Z,100115.00
2023-03-10T12:03:43.501Z,100112.00
2023-03-10T12:06:19.123Z,100115.00
2023-03-10T12:08:52.528Z,100110.00
2023-03-10T12:11:27.226Z,100113.00
2023-03-10T12:14:00.887Z,100119.00
2023-03-10T12:16:33.925Z,100112.00
2023-03-10T12:19:06.434Z,100117.00
2023-03-10T12:21:36.130Z,100114.00
2023-03-10T12:24:06.582Z,100112.00
2023-03-10T12:27:05.617Z,100113.00
2023-03-10T12:29:42.802Z,100118.00
2023-03-10T12:32:48.385Z,100123.00
2023-03-10T12:35:44.703Z,100128.00
2023-03-10T12:38:49.978Z,100124.00
2023-03-10T12:41:46.657Z,100115.00
2023-03-10T12:44:44.137Z,100127.00
2023-03-10T12:47:37.177Z,100119.00
2023-03-10T12:50:28.431Z,100118.00
2023-03-10T12:53:07.148Z,100120.00
2023-03-10T12:55:35.930Z,100115.00
2023-03-10T12:58:22.008Z,100125.00
2023-03-10T13:00:56.782Z,100123.00
2023-03-10T13:03:32.772Z,100128.00
2023-03-10T13:06:08.526Z,100133.00
2023-03-10T13:08:47.268Z,100130.00
2023-03-10T13:11:32.090Z,100132.00
2023-03-10T13:14:04.998Z,100125.00
2023-03-10T13:16:36.582Z,100115.00
2023-03-10T13:19:06.380Z,100126.00
2023-03-10T13:21:39.771Z,100120.00
2023-03-10T13:24:26.676Z,100109.00
2023-03-10T13:27:06.815Z,100116.00
2023-03-10T13:29:35.870Z,100116.00
2023-03-10T13:32:05.033Z,100110.00
2023-03-10T13:34:36.874Z,100116.00
2023-03-10T13:37:11.305Z,100119.00
2023-03-10T13:39:40.303Z,100114.00
2023-03-10T13:42:33.990Z,100125.00
2023-03-10T13:45:23.730Z,100121.00
2023-03-10T13:47:53.559Z,100115.00
2023-03-10T13:50:22.885Z,100127.00
2023-03-10T13:53:00.241Z,100122.00
2023-03-10T13:55:30.399Z,100126.00
2023-03-10T13:57:59.862Z,100119.00
2023-03-10T14:00:29.812Z,100128.00
2023-03-10T14:02:58.975Z,100117.00
2023-03-10T14:05:46.296Z,100126.00
2023-03-10T14:08:28.875Z,100112.00
2023-03-10T14:11:33.753Z,100111.00
2023-03-10T14:14:05.381Z,100112.00
2023-03-10T14:16:53.386Z,100110.00
2023-03-10T14:19:48.783Z,100119.00
2023-03-10T14:22:29.173Z,100115.00
2023-03-10T14:25:01.877Z,100113.00
2023-03-10T14:27:35.120Z,100113.00
2023-03-10T14:30:19.663Z,100115.00
2023-03-10T14:32:48.437Z,100117.00
2023-03-10T14:35:20.588Z,100110.00
2023-03-10T14:37:49.769Z,100112.00
2023-03-10T14:40:23.432Z,100109.00
2023-03-10T14:42:54.608Z,100111.00
2023-03-10T14:45:32.527Z,100120.00
2023-03-10T14:48:06.059Z,100113.00
2023-03-10T14:50:35.658Z,100116.00
2023-03-10T14:53:04.479Z,100117.00
2023-03-10T14:55:35.710Z,100113.00
2023-03-10T14:58:06.199Z,100115.00
2023-03-10T15:00:35.687Z,100109.00
2023-03-10T15:03:06.354Z,100108.00
2023-03-10T15:05:47.878Z,100110.00
2023-03-10T15:08:18.938Z,100112.00
2023-03-10T15:10:52.108Z,100120.00
2023-03-10T15:13:25.016Z,100108.00
2023-03-10T15:15:54.963Z,100108.00
2023-03-10T15:18:27.560Z,100116.00
2023-03-10T15:21:00.300Z,100109.00
2023-03-10T15:23:30.741Z,100110.00
2023-03-10T15:26:03.991Z,100114.00
2023-03-10T15:28:32.599Z,100111.00
2023-03-10T15:31:04.219Z,100113.00
2023-03-10T15:33:33.164Z,100112.00
2023-03-10T15:36:01.957Z,100115.00
2023-03-10T15:38:30.671Z,100115.00
2023-03-10T15:41:00.727Z,100121.00
2023-03-10T15:43:29.362Z,100118.00
2023-03-10T15:45:58.215Z,100122.00
2023-03-10T15:48:26.992Z,100122.00
2023-03-10T15:50:55.690Z,100127.00
2023-03-10T15:53:24.447Z,100123.00
2023-03-10T15:55:56.359Z,100121.00
2023-03-10T15:58:26.410Z,100125.00
2023-03-10T16:00:55.030Z,100118.00
2023-03-10T16:03:25.510Z,100114.00
2023-03-10T16:06:03.566Z,100121.00
2023-03-10T16:08:41.846Z,100126.00
2023-03-10T16:11:18.986Z,100130.00
2023-03-10T16:13:50.319Z,100136.00
2023-03-10T16:16:23.416Z,100132.00
2023-03-10T16:18:52.717Z,100136.00
2023-03-10T16:21:22.684Z,100137.00
2023-03-10T16:23:51.340Z,100145.00
2023-03-10T16:26:23.013Z,100149.00
2023-03-10T16:28:55.441Z,100149.00
2023-03-10T16:31:27.370Z,100143.00
2023-03-10T16:33:57.204Z,100152.00
2023-03-10T16:36:29.368Z,100149.00
2023-03-10T16:38:58.976Z,100158.00
2023-03-10T16:41:29.820Z,100160.00
2023-03-10T16:44:00.121Z,100150.00
2023-03-10T16:46:37.986Z,100147.00
2023-03-10T16:49:07.346Z,100159.00
2023-03-10T16:51:38.644Z,100156.00
2023-03-10T16:54:11.447Z,100157.00
2023-03-10T16:56:42.890Z,100163.00
2023-03-10T16:59:18.283Z,100167.00
2023-03-10T17:01:47.748Z,100170.00
2023-03-10T17:04:16.632Z,100176.00
2023-03-10T17:06:46.337Z,100159.00
2023-03-10T17:09:16.344Z,100168.00
2023-03-10T17:11:49.688Z,100167.00
2023-03-10T17:14:21.812Z,100167.00
2023-03-10T17:16:51.054Z,100159.00
2023-03-10T17:19:24.362Z,100174.00
2023-03-10T17:21:53.202Z,100174.00
2023-03-10T17:24:23.472Z,100173.00
2023-03-10T17:26:52.463Z,100177.00
2023-03-10T17:29:22.493Z,100172.00
2023-03-10T17:31:52.259Z,100180.00
2023-03-10T17:34:21.483Z,100176.00
2023-03-10T17:36:52.186Z,100179.00
2023-03-10T17:39:23.795Z,100176.00
2023-03-10T17:41:52.502Z,100175.00
2023-03-10T17:44:22.861Z,100177.00
2023-03-10T17:46:52.670Z,100180.00
2023-03-10T17:49:21.263Z,100172.00
2023-03-10T17:51:49.958Z,100180.00
2023-03-10T17:54:22.080Z,100166.00
2023-03-10T17:56:51.642Z,100174.00
2023-03-10T17:59:21.684Z,100168.00
2023-03-10T18:01:50.544Z,100173.00
2023-03-10T18:04:20.619Z,100162.00
2023-03-10T18:06:49.429Z,100160.00
2023-03-10T18:09:18.147Z,100167.00
2023-03-10T18:11:46.967Z,100157.00
2023-03-10T18:14:15.747Z,100170.00
2023-03-10T18:16:45.801Z,100172.00
2023-03-10T18:19:17.631Z,100175.00
2023-03-10T18:21:47.005Z,100171.00
2023-03-10T18:24:16.394Z,100169.00
2023-03-10T18:26:45.764Z,100173.00
2023-03-10T18:29:15.343Z,100170.00
2023-03-10T18:31:45.470Z,100179.00
2023-03-10T18:34:16.313Z,100174.00
2023-03-10T18:36:45.039Z,100172.00
2023-03-10T18:39:13.831Z,100162.00
2023-03-10T18:41:42.564Z,100168.00
2023-03-10T18:44:11.215Z,100165.00
2023-03-10T18:46:39.860Z,100177.00
2023-03-10T18:49:10.718Z,100168.00
2023-03-10T18:51:39.505Z,100178.00
2023-03-10T18:54:08.249Z,100161.00
2023-03-10T18:56:37.332Z,100169.00
2023-03-10T18:59:06.223Z,100166.00
2023-03-10T19:01:34.991Z,100181.00
2023-03-10T19:04:04.281Z,100162.00
2023-03-10T19:06:35.793Z,100178.00
2023-03-10T19:09:08.311Z,100176.00
2023-03-10T19:11:38.234Z,100171.00
2023-03-10T19:14:08.347Z,100175.00
2023-03-10T19:16:39.787Z,100175.00
2023-03-10T19:19:08.540Z,100177.00
2023-03-10T19:21:39.487Z,100180.00
2023-03-10T19:24:09.046Z,100175.00
2023-03-10T19:26:37.891Z,100175.00
2023-03-10T19:29:06.900Z,100177.00
2023-03-10T19:31:35.539Z,100179.00
2023-03-10T19:34:04.201Z,100177.00
2023-03-10T19:36:32.916Z,100172.00
2023-03-10T19:39:02.909Z,100180.00
2023-03-10T19:41:31.621Z,100181.00
2023-03-10T19:44:00.265Z,100189.00
2023-03-10T19:46:28.976Z,100188.00
2023-03-10T19:48:57.693Z,100192.00
2023-03-10T19:51:29.337Z,100197.00
2023-03-10T19:54:02.018Z,100193.00
2023-03-10T19:56:32.387Z,100190.00
2023-03-10T19:59:01.441Z,100193.00
2023-03-10T20:01:30.705Z,100195.00
2023-03-10T20:04:04.027Z,100191.00
2023-03-10T20:06:32.644Z,100197.00
2023-03-10T20:09:01.317Z,100187.00
2023-03-10T20:11:31.510Z,100200.00
2023-03-10T20:14:00.212Z,100186.00
2023-03-10T20:16:28.974Z,100185.00
2023-03-10T20:18:57.620Z,100173.00
2023-03-10T20:21:27.483Z,100181.00
2023-03-10T20:23:56.545Z,100180.00
2023-03-10T20:26:25.739Z,100190.00
2023-03-10T20:28:55.749Z,100180.00
2023-03-10T20:31:26.297Z,100183.00
2023-03-10T20:33:55.268Z,100186.00
2023-03-10T20:36:23.899Z,100183.00
2023-03-10T20:38:52.583Z,100185.00
2023-03-10T20:41:22.412Z,100184.00
2023-03-10T20:43:53.462Z,100184.00
2023-03-10T20:46:24.896Z,100189.00
2023-03-10T20:48:53.612Z,100190.00
2023-03-10T20:51:22.709Z,100189.00
2023-03-10T20:53:52.002Z,100176.00
2023-03-10T20:56:20.654Z,100188.00
2023-03-10T20:58:49.371Z,100184.00
2023-03-10T21:01:21.778Z,100180.00
2023-03-10T21:03:54.656Z,100176.00
2023-03-10T21:06:24.704Z,100184.00
2023-03-10T21:08:53.351Z,100192.00
2023-03-10T21:11:22.252Z,100184.00
2023-03-10T21:13:50.999Z,100192.00
2023-03-10T21:16:20.857Z,100189.00
2023-03-10T21:18:51.076Z,100185.00
2023-03-10T21:21:19.789Z,100186.00
2023-03-10T21:23:48.567Z,100192.00
2023-03-10T21:26:19.416Z,100187.00
2023-03-10T21:28:48.784Z,100188.00
2023-03-10T21:31:18.424Z,100193.00
2023-03-10T21:33:47.272Z,100198.00
2023-03-10T21:36:20.530Z,100186.00
2023-03-10T21:38:50.188Z,100188.00
2023-03-10T21:41:22.285Z,100189.00
2023-03-10T21:43:51.477Z,100199.00
2023-03-10T21:46:20.343Z,100190.00
2023-03-10T21:48:49.377Z,100192.00
2023-03-10T21:51:23.082Z,100187.00
2023-03-10T21:53:53.761Z,100196.00
2023-03-10T21:56:25.888Z,100204.00
2023-03-10T21:58:54.610Z,100207.00
2023-03-10T22:01:24.478Z,100202.00
2023-03-10T22:03:53.128Z,100195.00
2023-03-10T22:06:23.243Z,100189.00
2023-03-10T22:08:52.111Z,100193.00
2023-03-10T22:11:20.858Z,100172.00
2023-03-10T22:13:49.917Z,100177.00
2023-03-10T22:16:19.202Z,100175.00
2023-03-10T22:18:49.512Z,100185.00
2023-03-10T22:21:18.807Z,100178.00
2023-03-10T22:23:48.838Z,100171.00
2023-03-10T22:26:17.475Z,100182.00
2023-03-10T22:28:46.236Z,100186.00
2023-03-10T22:31:15.873Z,100178.00
2023-03-10T22:33:44.614Z,100180.00
2023-03-10T22:36:14.676Z,100188.00
2023-03-10T22:38:43.342Z,100183.00
2023-03-10T22:41:14.362Z,100187.00
2023-03-10T22:43:43.220Z,100193.00
2023-03-10T22:46:14.257Z,100179.00
2023-03-10T22:48:44.588Z,100181.00
2023-03-10T22:51:18.273Z,100178.00
2023-03-10T22:53:48.047Z,100190.00
2023-03-10T22:56:18.329Z,100183.00
2023-03-10T22:58:46.948Z,100182.00
2023-03-10T23:01:15.798Z,100176.00
2023-03-10T23:03:44.470Z,100173.00
2023-03-10T23:06:14.655Z,100188.00
2023-03-10T23:08:46.503Z,100191.00
2023-03-10T23:11:17.650Z,100187.00
2023-03-10T23:13:46.423Z,100184.00
2023-03-10T23:16:18.107Z,100185.00
2023-03-10T23:18:47.551Z,100178.00
2023-03-10T23:21:16.533Z,100193.00
2023-03-10T23:23:47.911Z,100200.00
2023-03-10T23:26:17.975Z,100201.00
2023-03-10T23:28:47.438Z,100192.00
2023-03-10T23:31:17.172Z,100192.00
2023-03-10T23:33:46.260Z,100184.00
2023-03-10T23:36:14.929Z,100189.00
2023-03-10T23:38:43.603Z,100174.00
2023-03-10T23:41:12.318Z,100181.00
2023-03-10T23:43:42.320Z,100178.00
2023-03-10T23:46:11.315Z,100187.00
2023-03-10T23:48:40.148Z,100193.00
2023-03-10T23:51:15.697Z,100177.00
2023-03-10T23:53:44.913Z,100182.00
2023-03-10T23:56:13.746Z,100170.00
2023-03-10T23:58:43.887Z,100165.00
